sensor_id;sensor_type;location;lat;lon;timestamp;pressure;altitude;pressure_sealevel;temperature;humidity
84055;BME280;74141;51.504;7.122;2023-12-20T00:01:14;100992.22;;;7.61;100.00
84055;BME280;74141;51.504;7.122;2023-12-20T00:03:40;101003.47;;;7.65;100.00
84055;BME280;74141;51.504;7.122;2023-12-20T00:06:05;101004.34;;;7.65;100.00
84055;BME280;74141;51.504;7.122;2023-12-20T00:08:30;100988.56;;;7.68;100.00
84055;BME280;74141;51.504;7.122;2023-12-20T00:10:55;100988.56;;;7.68;100.00
84055;BME280;74141;51.504;7.122;2023-12-20T00:13:21;100996.38;;;7.70;99.78
84055;BME280;74141;51.504;7.122;2023-12-20T00:15:46;100997.28;;;7.69;100.00
84055;BME280;74141;51.504;7.122;2023-12-20T00:18:11;100998.16;;;7.68;99.14
84055;BME280;74141;51.504;7.122;2023-12-20T00:20:37;101007.81;;;7.67;99.49
84055;BME280;74141;51.504;7.122;2023-12-20T00:23:02;101001.78;;;7.64;99.79
84055;BME280;74141;51.504;7.122;2023-12-20T00:25:28;100984.59;;;7.51;99.27
84055;BME280;74141;51.504;7.122;2023-12-20T00:27:53;100989.91;;;7.48;98.19
84055;BME280;74141;51.504;7.122;2023-12-20T00:30:18;101014.28;;;7.53;98.62
84055;BME280;74141;51.504;7.122;2023-12-20T00:32:44;100987.63;;;7.33;98.85
84055;BME280;74141;51.504;7.122;2023-12-20T00:35:17;101010.16;;;7.41;99.37
84055;BME280;74141;51.504;7.122;2023-12-20T00:37:43;101009.44;;;7.35;99.30
84055;BME280;74141;51.504;7.122;2023-12-20T00:40:08;101018.03;;;7.40;97.77
84055;BME280;74141;51.504;7.122;2023-12-20T00:42:34;101023.41;;;7.34;97.86
84055;BME280;74141;51.504;7.122;2023-12-20T00:45:00;101022.53;;;7.35;96.89
84055;BME280;74141;51.504;7.122;2023-12-20T00:47:25;101018.19;;;7.32;95.58
84055;BME280;74141;51.504;7.122;2023-12-20T00:49:51;101032.25;;;7.30;96.87
84055;BME280;74141;51.504;7.122;2023-12-20T00:52:16;101034.97;;;7.25;97.28
84055;BME280;74141;51.504;7.122;2023-12-20T00:54:44;101040.88;;;7.35;96.87
84055;BME280;74141;51.504;7.122;2023-12-20T00:57:10;101039.22;;;7.29;97.36
84055;BME280;74141;51.504;7.122;2023-12-20T00:59:35;101045.44;;;7.25;97.93
84055;BME280;74141;51.504;7.122;2023-12-20T01:02:01;101035.78;;;7.29;97.57
84055;BME280;74141;51.504;7.122;2023-12-20T01:04:27;101037.50;;;7.30;97.57
84055;BME280;74141;51.504;7.122;2023-12-20T01:06:52;101029.75;;;7.24;97.42
84055;BME280;74141;51.504;7.122;2023-12-20T01:09:17;101032.38;;;7.24;98.39
84055;BME280;74141;51.504;7.122;2023-12-20T01:11:43;101033.28;;;7.23;98.52
84055;BME280;74141;51.504;7.122;2023-12-20T01:14:08;101039.53;;;7.17;98.51
84055;BME280;74141;51.504;7.122;2023-12-20T01:16:34;101037.69;;;7.21;97.84
84055;BME280;74141;51.504;7.122;2023-12-20T01:18:59;101035.06;;;7.21;98.39
84055;BME280;74141;51.504;7.122;2023-12-20T01:21:24;101042.06;;;7.20;98.12
84055;BME280;74141;51.504;7.122;2023-12-20T01:23:50;101041.22;;;7.18;98.21
84055;BME280;74141;51.504;7.122;2023-12-20T01:26:16;101056.00;;;7.22;97.55
84055;BME280;74141;51.504;7.122;2023-12-20T01:28:41;101056.03;;;7.19;97.19
84055;BME280;74141;51.504;7.122;2023-12-20T01:31:07;101060.44;;;7.19;97.26
84055;BME280;74141;51.504;7.122;2023-12-20T01:33:32;101063.88;;;7.21;97.83
84055;BME280;74141;51.504;7.122;2023-12-20T01:35:57;101059.47;;;7.23;96.22
84055;BME280;74141;51.504;7.122;2023-12-20T01:38:23;101053.47;;;7.18;95.79
84055;BME280;74141;51.504;7.122;2023-12-20T01:40:48;101052.72;;;7.13;95.84
84055;BME280;74141;51.504;7.122;2023-12-20T01:43:13;101049.47;;;7.00;97.11
84055;BME280;74141;51.504;7.122;2023-12-20T01:45:38;101060.00;;;6.97;96.46
84055;BME280;74141;51.504;7.122;2023-12-20T01:48:05;101065.28;;;6.94;97.19
84055;BME280;74141;51.504;7.122;2023-12-20T01:50:32;101058.53;;;6.83;96.66
84055;BME280;74141;51.504;7.122;2023-12-20T01:53:00;101061.03;;;6.89;96.73
84055;BME280;74141;51.504;7.122;2023-12-20T01:55:27;101051.50;;;6.86;96.27
84055;BME280;74141;51.504;7.122;2023-12-20T01:57:55;101050.72;;;6.80;96.66
84055;BME280;74141;51.504;7.122;2023-12-20T02:00:21;101048.31;;;6.69;96.42
84055;BME280;74141;51.504;7.122;2023-12-20T02:02:49;101038.94;;;6.58;96.85
84055;BME280;74141;51.504;7.122;2023-12-20T02:05:16;101051.97;;;6.61;95.93
84055;BME280;74141;51.504;7.122;2023-12-20T02:07:41;101051.25;;;6.51;96.18
84055;BME280;74141;51.504;7.122;2023-12-20T02:10:13;101054.91;;;6.43;96.52
84055;BME280;74141;51.504;7.122;2023-12-20T02:12:38;101033.38;;;6.29;97.50
84055;BME280;74141;51.504;7.122;2023-12-20T02:15:13;101048.84;;;6.39;96.13
84055;BME280;74141;51.504;7.122;2023-12-20T02:17:39;101059.44;;;6.33;96.88
84055;BME280;74141;51.504;7.122;2023-12-20T02:20:11;101052.38;;;6.37;96.60
84055;BME280;74141;51.504;7.122;2023-12-20T02:22:36;101058.50;;;6.37;96.56
84055;BME280;74141;51.504;7.122;2023-12-20T02:25:10;101048.63;;;6.51;95.14
84055;BME280;74141;51.504;7.122;2023-12-20T02:27:36;101047.84;;;6.48;95.88
84055;BME280;74141;51.504;7.122;2023-12-20T02:30:14;101053.00;;;6.52;95.95
84055;BME280;74141;51.504;7.122;2023-12-20T02:32:39;101047.84;;;6.48;96.03
84055;BME280;74141;51.504;7.122;2023-12-20T02:35:13;101038.31;;;6.44;96.28
84055;BME280;74141;51.504;7.122;2023-12-20T02:37:39;101056.50;;;6.50;96.16
84055;BME280;74141;51.504;7.122;2023-12-20T02:40:13;101055.41;;;6.64;95.63
84055;BME280;74141;51.504;7.122;2023-12-20T02:42:38;101060.66;;;6.63;95.79
84055;BME280;74141;51.504;7.122;2023-12-20T02:45:13;101053.56;;;6.68;95.32
84055;BME280;74141;51.504;7.122;2023-12-20T02:47:38;101047.44;;;6.69;95.29
84055;BME280;74141;51.504;7.122;2023-12-20T02:50:12;101048.25;;;6.72;94.31
84055;BME280;74141;51.504;7.122;2023-12-20T02:52:38;101052.69;;;6.69;95.06
84055;BME280;74141;51.504;7.122;2023-12-20T02:55:12;101046.72;;;6.62;95.25
84055;BME280;74141;51.504;7.122;2023-12-20T02:57:38;101053.63;;;6.65;94.25
84055;BME280;74141;51.504;7.122;2023-12-20T03:00:08;101047.63;;;6.60;95.00
84055;BME280;74141;51.504;7.122;2023-12-20T03:02:34;101052.97;;;6.54;95.15
84055;BME280;74141;51.504;7.122;2023-12-20T03:04:59;101055.63;;;6.52;95.57
84055;BME280;74141;51.504;7.122;2023-12-20T03:07:25;101060.03;;;6.49;95.55
84055;BME280;74141;51.504;7.122;2023-12-20T03:09:50;101055.75;;;6.45;95.96
84055;BME280;74141;51.504;7.122;2023-12-20T03:12:15;101048.69;;;6.48;95.92
84055;BME280;74141;51.504;7.122;2023-12-20T03:14:41;101062.69;;;6.47;96.10
84055;BME280;74141;51.504;7.122;2023-12-20T03:17:06;101060.09;;;6.46;96.36
84055;BME280;74141;51.504;7.122;2023-12-20T03:19:31;101052.25;;;6.44;95.63
84055;BME280;74141;51.504;7.122;2023-12-20T03:21:57;101048.75;;;6.45;95.87
84055;BME280;74141;51.504;7.122;2023-12-20T03:24:22;101047.91;;;6.45;95.95
84055;BME280;74141;51.504;7.122;2023-12-20T03:26:47;101047.94;;;6.42;96.53
84055;BME280;74141;51.504;7.122;2023-12-20T03:29:12;101042.72;;;6.42;96.19
84055;BME280;74141;51.504;7.122;2023-12-20T03:31:38;101056.78;;;6.35;96.49
84055;BME280;74141;51.504;7.122;2023-12-20T03:34:03;101056.84;;;6.32;96.40
84055;BME280;74141;51.504;7.122;2023-12-20T03:36:28;101059.56;;;6.26;96.77
84055;BME280;74141;51.504;7.122;2023-12-20T03:38:54;101054.47;;;6.18;96.73
84055;BME280;74141;51.504;7.122;2023-12-20T03:41:19;101050.19;;;6.12;96.72
84055;BME280;74141;51.504;7.122;2023-12-20T03:43:44;101048.50;;;6.08;97.48
84055;BME280;74141;51.504;7.122;2023-12-20T03:46:10;101051.25;;;6.01;97.04
84055;BME280;74141;51.504;7.122;2023-12-20T03:48:35;101038.22;;;5.96;97.27
84055;BME280;74141;51.504;7.122;2023-12-20T03:51:00;101038.31;;;5.90;97.24
84055;BME280;74141;51.504;7.122;2023-12-20T03:53:25;101027.97;;;5.84;97.30
84055;BME280;74141;51.504;7.122;2023-12-20T03:55:51;101039.41;;;5.76;97.97
84055;BME280;74141;51.504;7.122;2023-12-20T03:58:16;101041.28;;;5.66;97.86
84055;BME280;74141;51.504;7.122;2023-12-20T04:00:41;101044.84;;;5.59;98.05
84055;BME280;74141;51.504;7.122;2023-12-20T04:03:07;101047.38;;;5.67;97.81
84055;BME280;74141;51.504;7.122;2023-12-20T04:05:32;101044.63;;;5.76;97.70
84055;BME280;74141;51.504;7.122;2023-12-20T04:07:59;101043.81;;;5.72;97.65
84055;BME280;74141;51.504;7.122;2023-12-20T04:10:24;101038.69;;;5.66;97.85
84055;BME280;74141;51.504;7.122;2023-12-20T04:12:49;101027.44;;;5.60;97.96
84055;BME280;74141;51.504;7.122;2023-12-20T04:15:15;101030.16;;;5.52;98.24
84055;BME280;74141;51.504;7.122;2023-12-20T04:17:40;101032.81;;;5.49;98.42
84055;BME280;74141;51.504;7.122;2023-12-20T04:20:06;101042.41;;;5.47;98.38
84055;BME280;74141;51.504;7.122;2023-12-20T04:22:31;101038.84;;;5.54;98.53
84055;BME280;74141;51.504;7.122;2023-12-20T04:24:57;101045.00;;;5.49;98.56
84055;BME280;74141;51.504;7.122;2023-12-20T04:27:22;101032.72;;;5.55;98.47
84055;BME280;74141;51.504;7.122;2023-12-20T04:29:47;101030.91;;;5.62;98.25
84055;BME280;74141;51.504;7.122;2023-12-20T04:32:12;101034.28;;;5.68;97.60
84055;BME280;74141;51.504;7.122;2023-12-20T04:34:38;101025.66;;;5.63;97.28
84055;BME280;74141;51.504;7.122;2023-12-20T04:37:03;101043.88;;;5.68;97.87
84055;BME280;74141;51.504;7.122;2023-12-20T04:39:29;101040.34;;;5.70;98.14
84055;BME280;74141;51.504;7.122;2023-12-20T04:41:54;101056.72;;;5.84;97.35
84055;BME280;74141;51.504;7.122;2023-12-20T04:44:19;101034.91;;;5.88;97.24
84055;BME280;74141;51.504;7.122;2023-12-20T04:46:44;101044.50;;;5.86;97.15
84055;BME280;74141;51.504;7.122;2023-12-20T04:49:10;101045.41;;;5.85;97.22
84055;BME280;74141;51.504;7.122;2023-12-20T04:51:35;101040.28;;;5.76;97.41
84055;BME280;74141;51.504;7.122;2023-12-20T04:54:01;101047.13;;;5.86;97.82
84055;BME280;74141;51.504;7.122;2023-12-20T04:56:26;101049.72;;;5.86;96.81
84055;BME280;74141;51.504;7.122;2023-12-20T04:58:52;101051.47;;;5.86;97.10
84055;BME280;74141;51.504;7.122;2023-12-20T05:01:17;101050.59;;;5.88;96.50
84055;BME280;74141;51.504;7.122;2023-12-20T05:03:43;101037.53;;;5.87;96.23
84055;BME280;74141;51.504;7.122;2023-12-20T05:06:09;101054.84;;;5.94;96.63
84055;BME280;74141;51.504;7.122;2023-12-20T05:08:35;101053.91;;;5.96;96.74
84055;BME280;74141;51.504;7.122;2023-12-20T05:11:00;101053.91;;;5.96;96.41
84055;BME280;74141;51.504;7.122;2023-12-20T05:13:25;101061.72;;;5.99;96.28
84055;BME280;74141;51.504;7.122;2023-12-20T05:15:50;101047.03;;;5.92;96.35
84055;BME280;74141;51.504;7.122;2023-12-20T05:18:16;101050.59;;;5.88;96.72
84055;BME280;74141;51.504;7.122;2023-12-20T05:20:41;101056.66;;;5.89;96.75
84055;BME280;74141;51.504;7.122;2023-12-20T05:23:06;101069.63;;;5.96;96.12
84055;BME280;74141;51.504;7.122;2023-12-20T05:25:32;101060.91;;;5.97;96.25
84055;BME280;74141;51.504;7.122;2023-12-20T05:27:57;101058.25;;;6.00;95.87
84055;BME280;74141;51.504;7.122;2023-12-20T05:30:22;101046.78;;;6.07;95.52
84055;BME280;74141;51.504;7.122;2023-12-20T05:32:48;101049.41;;;6.07;95.42
84055;BME280;74141;51.504;7.122;2023-12-20T05:35:13;101042.56;;;5.99;96.10
84055;BME280;74141;51.504;7.122;2023-12-20T05:37:39;101040.91;;;5.92;96.35
84055;BME280;74141;51.504;7.122;2023-12-20T05:40:04;101030.59;;;5.83;97.02
84055;BME280;74141;51.504;7.122;2023-12-20T05:42:30;101014.25;;;5.67;97.27
84055;BME280;74141;51.504;7.122;2023-12-20T05:44:55;101034.16;;;5.77;97.23
84055;BME280;74141;51.504;7.122;2023-12-20T05:47:21;101023.72;;;5.76;97.52
84055;BME280;74141;51.504;7.122;2023-12-20T05:49:46;101034.16;;;5.77;97.47
84055;BME280;74141;51.504;7.122;2023-12-20T05:52:11;101028.94;;;5.76;97.02
84055;BME280;74141;51.504;7.122;2023-12-20T05:54:36;101041.09;;;5.78;97.33
84055;BME280;74141;51.504;7.122;2023-12-20T05:57:02;101026.25;;;5.83;96.60
84055;BME280;74141;51.504;7.122;2023-12-20T05:59:27;101038.38;;;5.87;96.46
84055;BME280;74141;51.504;7.122;2023-12-20T06:01:52;101036.66;;;5.86;96.98
84055;BME280;74141;51.504;7.122;2023-12-20T06:04:18;101039.25;;;5.88;96.39
84055;BME280;74141;51.504;7.122;2023-12-20T06:06:43;101021.88;;;5.85;96.29
84055;BME280;74141;51.504;7.122;2023-12-20T06:09:09;101030.53;;;5.87;95.89
84055;BME280;74141;51.504;7.122;2023-12-20T06:11:35;101033.00;;;5.96;96.23
84055;BME280;74141;51.504;7.122;2023-12-20T06:14:00;101026.13;;;5.91;96.23
84055;BME280;74141;51.504;7.122;2023-12-20T06:16:25;101045.16;;;6.00;95.83
84055;BME280;74141;51.504;7.122;2023-12-20T06:18:51;101043.34;;;6.04;95.81
84055;BME280;74141;51.504;7.122;2023-12-20T06:21:16;101028.50;;;6.06;95.46
84055;BME280;74141;51.504;7.122;2023-12-20T06:23:41;101027.69;;;6.02;95.65
84055;BME280;74141;51.504;7.122;2023-12-20T06:26:06;101038.19;;;5.99;95.61
84055;BME280;74141;51.504;7.122;2023-12-20T06:28:32;101042.56;;;6.00;95.98
84055;BME280;74141;51.504;7.122;2023-12-20T06:30:57;101044.28;;;6.01;95.94
84055;BME280;74141;51.504;7.122;2023-12-20T06:33:23;101043.28;;;6.08;95.47
84055;BME280;74141;51.504;7.122;2023-12-20T06:35:49;101044.97;;;6.11;95.13
84055;BME280;74141;51.504;7.122;2023-12-20T06:38:14;101023.19;;;6.12;94.68
84055;BME280;74141;51.504;7.122;2023-12-20T06:40:40;101031.81;;;6.15;94.91
84055;BME280;74141;51.504;7.122;2023-12-20T06:43:05;101050.06;;;6.18;95.45
84055;BME280;74141;51.504;7.122;2023-12-20T06:45:32;101034.38;;;6.18;95.34
84055;BME280;74141;51.504;7.122;2023-12-20T06:47:57;101037.84;;;6.20;94.51
84055;BME280;74141;51.504;7.122;2023-12-20T06:50:23;101033.44;;;6.24;94.86
84055;BME280;74141;51.504;7.122;2023-12-20T06:52:48;101037.78;;;6.23;95.01
84055;BME280;74141;51.504;7.122;2023-12-20T06:55:14;101042.09;;;6.26;94.65
84055;BME280;74141;51.504;7.122;2023-12-20T06:57:39;101041.28;;;6.24;94.52
84055;BME280;74141;51.504;7.122;2023-12-20T07:00:05;101044.78;;;6.21;95.00
84055;BME280;74141;51.504;7.122;2023-12-20T07:02:30;101037.78;;;6.23;94.52
84055;BME280;74141;51.504;7.122;2023-12-20T07:04:56;101031.72;;;6.21;94.97
84055;BME280;74141;51.504;7.122;2023-12-20T07:07:22;101039.50;;;6.24;94.58
84055;BME280;74141;51.504;7.122;2023-12-20T07:09:49;101022.09;;;6.23;94.31
84055;BME280;74141;51.504;7.122;2023-12-20T07:12:14;101015.03;;;6.29;93.93
84055;BME280;74141;51.504;7.122;2023-12-20T07:14:40;101021.06;;;6.32;93.11
84055;BME280;74141;51.504;7.122;2023-12-20T07:17:05;101025.38;;;6.35;92.97
84055;BME280;74141;51.504;7.122;2023-12-20T07:19:36;101021.94;;;6.33;93.78
84055;BME280;74141;51.504;7.122;2023-12-20T07:22:02;101029.81;;;6.31;93.74
84055;BME280;74141;51.504;7.122;2023-12-20T07:24:27;101013.28;;;6.29;93.32
84055;BME280;74141;51.504;7.122;2023-12-20T07:26:52;101024.50;;;6.36;93.42
84055;BME280;74141;51.504;7.122;2023-12-20T07:29:18;101025.31;;;6.38;93.10
84055;BME280;74141;51.504;7.122;2023-12-20T07:31:43;101032.25;;;6.42;92.78
84055;BME280;74141;51.504;7.122;2023-12-20T07:34:08;101027.84;;;6.42;92.88
84055;BME280;74141;51.504;7.122;2023-12-20T07:36:33;101021.72;;;6.45;92.79
84055;BME280;74141;51.504;7.122;2023-12-20T07:38:59;101036.50;;;6.47;92.02
84055;BME280;74141;51.504;7.122;2023-12-20T07:41:24;101037.38;;;6.48;92.88
84055;BME280;74141;51.504;7.122;2023-12-20T07:43:49;101033.00;;;6.48;92.61
84055;BME280;74141;51.504;7.122;2023-12-20T07:46:14;101038.22;;;6.48;93.04
84055;BME280;74141;51.504;7.122;2023-12-20T07:48:40;101035.59;;;6.48;93.17
84055;BME280;74141;51.504;7.122;2023-12-20T07:51:06;101038.22;;;6.48;92.88
84055;BME280;74141;51.504;7.122;2023-12-20T07:53:33;101047.75;;;6.54;92.37
84055;BME280;74141;51.504;7.122;2023-12-20T07:55:59;101025.81;;;6.59;93.10
84055;BME280;74141;51.504;7.122;2023-12-20T07:58:24;101036.78;;;6.78;92.55
84055;BME280;74141;51.504;7.122;2023-12-20T08:00:49;101032.28;;;6.86;92.54
84055;BME280;74141;51.504;7.122;2023-12-20T08:03:15;101030.75;;;6.76;92.18
84055;BME280;74141;51.504;7.122;2023-12-20T08:05:41;101026.50;;;6.69;91.69
84055;BME280;74141;51.504;7.122;2023-12-20T08:08:06;101015.25;;;6.65;91.78
84055;BME280;74141;51.504;7.122;2023-12-20T08:10:32;101027.44;;;6.66;91.88
84055;BME280;74141;51.504;7.122;2023-12-20T08:12:57;101016.06;;;6.66;91.67
84055;BME280;74141;51.504;7.122;2023-12-20T08:15:23;101026.56;;;6.66;92.05
84055;BME280;74141;51.504;7.122;2023-12-20T08:17:48;101027.47;;;6.63;92.23
84055;BME280;74141;51.504;7.122;2023-12-20T08:20:16;101024.84;;;6.65;91.96
84055;BME280;74141;51.504;7.122;2023-12-20T08:22:41;101024.81;;;6.66;91.52
84055;BME280;74141;51.504;7.122;2023-12-20T08:25:06;101019.59;;;6.65;91.34
84055;BME280;74141;51.504;7.122;2023-12-20T08:27:32;101025.63;;;6.70;91.60
84055;BME280;74141;51.504;7.122;2023-12-20T08:29:57;101026.41;;;6.73;91.20
84055;BME280;74141;51.504;7.122;2023-12-20T08:32:25;101026.31;;;6.78;91.18
84055;BME280;74141;51.504;7.122;2023-12-20T08:34:51;101033.38;;;6.76;90.88
84055;BME280;74141;51.504;7.122;2023-12-20T08:37:16;101035.97;;;6.76;90.82
84055;BME280;74141;51.504;7.122;2023-12-20T08:39:41;101046.38;;;6.80;90.71
84055;BME280;74141;51.504;7.122;2023-12-20T08:42:08;101012.38;;;6.79;90.25
84055;BME280;74141;51.504;7.122;2023-12-20T08:44:33;101022.78;;;6.82;90.20
84055;BME280;74141;51.504;7.122;2023-12-20T08:46:59;101040.16;;;6.86;90.22
84055;BME280;74141;51.504;7.122;2023-12-20T08:49:24;101031.41;;;6.85;90.62
84055;BME280;74141;51.504;7.122;2023-12-20T08:51:50;101034.88;;;6.87;90.62
84055;BME280;74141;51.504;7.122;2023-12-20T08:54:16;101004.63;;;6.73;90.66
84055;BME280;74141;51.504;7.122;2023-12-20T08:56:42;101035.69;;;6.91;89.91
84055;BME280;74141;51.504;7.122;2023-12-20T08:59:08;101020.78;;;6.93;89.41
84055;BME280;74141;51.504;7.122;2023-12-20T09:01:34;101007.69;;;6.93;89.38
84055;BME280;74141;51.504;7.122;2023-12-20T09:04:01;101023.41;;;6.93;90.02
84055;BME280;74141;51.504;7.122;2023-12-20T09:06:26;101013.00;;;6.90;89.86
84055;BME280;74141;51.504;7.122;2023-12-20T09:08:51;101022.47;;;6.95;89.85
84055;BME280;74141;51.504;7.122;2023-12-20T09:11:17;101013.00;;;6.90;89.22
84055;BME280;74141;51.504;7.122;2023-12-20T09:13:42;101021.56;;;6.98;88.84
84055;BME280;74141;51.504;7.122;2023-12-20T09:16:09;101004.13;;;6.95;89.86
84055;BME280;74141;51.504;7.122;2023-12-20T09:18:34;101005.88;;;6.96;89.41
84055;BME280;74141;51.504;7.122;2023-12-20T09:21:00;101009.47;;;6.92;88.92
84055;BME280;74141;51.504;7.122;2023-12-20T09:23:25;101016.31;;;6.99;88.88
84055;BME280;74141;51.504;7.122;2023-12-20T09:25:50;101004.97;;;6.99;88.07
84055;BME280;74141;51.504;7.122;2023-12-20T09:28:16;101017.09;;;7.03;87.91
84055;BME280;74141;51.504;7.122;2023-12-20T09:30:41;101022.34;;;7.01;88.72
84055;BME280;74141;51.504;7.122;2023-12-20T09:33:07;101024.19;;;6.98;88.92
84055;BME280;74141;51.504;7.122;2023-12-20T09:35:33;101013.59;;;7.04;88.89
84055;BME280;74141;51.504;7.122;2023-12-20T09:37:58;101015.31;;;7.05;88.53
84055;BME280;74141;51.504;7.122;2023-12-20T09:40:26;101004.91;;;7.02;89.60
84055;BME280;74141;51.504;7.122;2023-12-20T09:42:57;101000.47;;;7.05;88.47
84055;BME280;74141;51.504;7.122;2023-12-20T09:45:23;100994.66;;;6.90;88.88
84055;BME280;74141;51.504;7.122;2023-12-20T09:47:50;101009.25;;;7.01;89.07
84055;BME280;74141;51.504;7.122;2023-12-20T09:50:18;101023.06;;;7.09;89.04
84055;BME280;74141;51.504;7.122;2023-12-20T09:52:46;101014.38;;;7.07;89.02
84055;BME280;74141;51.504;7.122;2023-12-20T09:55:15;101006.47;;;7.09;88.38
84055;BME280;74141;51.504;7.122;2023-12-20T09:57:42;101022.06;;;7.15;88.16
84055;BME280;74141;51.504;7.122;2023-12-20T10:00:07;101018.53;;;7.19;88.52
84055;BME280;74141;51.504;7.122;2023-12-20T10:02:34;101014.06;;;7.22;88.22
84055;BME280;74141;51.504;7.122;2023-12-20T10:05:06;101020.94;;;7.26;87.86
84055;BME280;74141;51.504;7.122;2023-12-20T10:07:34;101014.88;;;7.26;88.60
84055;BME280;74141;51.504;7.122;2023-12-20T10:10:01;100995.03;;;7.14;88.09
84055;BME280;74141;51.504;7.122;2023-12-20T10:12:27;101019.22;;;7.27;87.97
84055;BME280;74141;51.504;7.122;2023-12-20T10:14:52;101010.50;;;7.25;88.27
84055;BME280;74141;51.504;7.122;2023-12-20T10:17:17;101007.84;;;7.26;87.63
84055;BME280;74141;51.504;7.122;2023-12-20T10:19:43;101007.88;;;7.25;87.95
84055;BME280;74141;51.504;7.122;2023-12-20T10:22:10;101002.53;;;7.29;87.84
84055;BME280;74141;51.504;7.122;2023-12-20T10:24:35;100995.56;;;7.30;88.83
84055;BME280;74141;51.504;7.122;2023-12-20T10:27:04;100999.09;;;7.29;88.97
84055;BME280;74141;51.504;7.122;2023-12-20T10:29:34;100986.78;;;7.31;88.61
84055;BME280;74141;51.504;7.122;2023-12-20T10:31:59;100985.94;;;7.30;88.93
84055;BME280;74141;51.504;7.122;2023-12-20T10:34:24;100978.06;;;7.32;88.70
84055;BME280;74141;51.504;7.122;2023-12-20T10:36:50;100984.13;;;7.32;88.24
84055;BME280;74141;51.504;7.122;2023-12-20T10:39:17;100978.06;;;7.32;89.07
84055;BME280;74141;51.504;7.122;2023-12-20T10:41:43;100983.22;;;7.35;89.65
84055;BME280;74141;51.504;7.122;2023-12-20T10:44:10;100985.00;;;7.33;89.39
84055;BME280;74141;51.504;7.122;2023-12-20T10:46:36;100978.13;;;7.29;89.97
84055;BME280;74141;51.504;7.122;2023-12-20T10:49:05;100980.75;;;7.29;89.28
84055;BME280;74141;51.504;7.122;2023-12-20T10:51:31;100984.19;;;7.29;89.60
84055;BME280;74141;51.504;7.122;2023-12-20T10:53:56;100960.59;;;7.31;89.20
84055;BME280;74141;51.504;7.122;2023-12-20T10:56:22;100976.34;;;7.29;91.84
84055;BME280;74141;51.504;7.122;2023-12-20T10:58:49;100978.25;;;7.23;91.90
84055;BME280;74141;51.504;7.122;2023-12-20T11:01:16;100980.97;;;7.18;91.38
84055;BME280;74141;51.504;7.122;2023-12-20T11:03:48;100988.84;;;7.18;91.20
84055;BME280;74141;51.504;7.122;2023-12-20T11:06:29;100987.91;;;7.19;91.52
84055;BME280;74141;51.504;7.122;2023-12-20T11:09:12;100985.22;;;7.24;90.99
84055;BME280;74141;51.504;7.122;2023-12-20T11:14:50;100984.19;;;7.29;90.28
84055;BME280;74141;51.504;7.122;2023-12-20T11:17:16;100984.91;;;7.37;89.82
84055;BME280;74141;51.504;7.122;2023-12-20T11:22:17;100973.22;;;7.52;89.43
84055;BME280;74141;51.504;7.122;2023-12-20T11:24:44;100970.47;;;7.56;89.97
84055;BME280;74141;51.504;7.122;2023-12-20T11:27:09;100971.44;;;7.54;90.89
84055;BME280;74141;51.504;7.122;2023-12-20T11:29:35;100970.63;;;7.50;89.49
84055;BME280;74141;51.504;7.122;2023-12-20T11:34:54;100956.84;;;7.42;91.61
84055;BME280;74141;51.504;7.122;2023-12-20T11:37:20;100959.44;;;7.44;90.69
84055;BME280;74141;51.504;7.122;2023-12-20T11:39:45;100964.72;;;7.42;91.69
84055;BME280;74141;51.504;7.122;2023-12-20T11:42:10;100952.44;;;7.43;91.28
84055;BME280;74141;51.504;7.122;2023-12-20T11:44:36;100965.56;;;7.43;91.43
84055;BME280;74141;51.504;7.122;2023-12-20T11:47:02;100955.13;;;7.40;91.45
84055;BME280;74141;51.504;7.122;2023-12-20T11:49:27;100944.84;;;7.31;91.95
84055;BME280;74141;51.504;7.122;2023-12-20T11:51:55;100949.38;;;7.26;93.50
84055;BME280;74141;51.504;7.122;2023-12-20T11:54:21;100938.94;;;7.23;94.11
84055;BME280;74141;51.504;7.122;2023-12-20T11:56:47;100933.59;;;7.27;94.16
84055;BME280;74141;51.504;7.122;2023-12-20T11:59:13;100922.53;;;7.15;93.18
84055;BME280;74141;51.504;7.122;2023-12-20T12:01:38;100944.19;;;7.23;92.84
84055;BME280;74141;51.504;7.122;2023-12-20T12:04:07;100942.53;;;7.19;94.25
84055;BME280;74141;51.504;7.122;2023-12-20T12:06:32;100938.19;;;7.18;94.92
84055;BME280;74141;51.504;7.122;2023-12-20T12:08:58;100933.13;;;7.09;94.81
84055;BME280;74141;51.504;7.122;2023-12-20T12:11:24;100941.97;;;7.05;94.84
84055;BME280;74141;51.504;7.122;2023-12-20T12:13:49;100936.75;;;7.03;96.20
84055;BME280;74141;51.504;7.122;2023-12-20T12:16:19;100926.50;;;6.93;95.67
84055;BME280;74141;51.504;7.122;2023-12-20T12:18:45;100929.91;;;6.98;94.73
84055;BME280;74141;51.504;7.122;2023-12-20T12:21:11;100920.19;;;7.01;96.46
84055;BME280;74141;51.504;7.122;2023-12-20T12:23:43;100916.78;;;6.99;95.15
84055;BME280;74141;51.504;7.122;2023-12-20T12:26:08;100915.91;;;6.99;96.05
84055;BME280;74141;51.504;7.122;2023-12-20T12:28:34;100920.13;;;7.04;95.14
84055;BME280;74141;51.504;7.122;2023-12-20T12:30:59;100920.94;;;7.08;93.61
84055;BME280;74141;51.504;7.122;2023-12-20T12:33:25;100925.28;;;7.09;94.74
84055;BME280;74141;51.504;7.122;2023-12-20T12:35:51;100914.69;;;7.13;93.93
84055;BME280;74141;51.504;7.122;2023-12-20T12:38:20;100921.59;;;7.19;93.19
84055;BME280;74141;51.504;7.122;2023-12-20T12:40:46;100910.25;;;7.17;94.33
84055;BME280;74141;51.504;7.122;2023-12-20T12:43:11;100911.19;;;7.14;93.65
84055;BME280;74141;51.504;7.122;2023-12-20T12:45:38;100906.81;;;7.15;94.56
84055;BME280;74141;51.504;7.122;2023-12-20T12:48:04;100909.34;;;7.18;93.97
84055;BME280;74141;51.504;7.122;2023-12-20T12:50:30;100895.44;;;7.16;93.63
84055;BME280;74141;51.504;7.122;2023-12-20T12:52:56;100895.41;;;7.17;93.79
84055;BME280;74141;51.504;7.122;2023-12-20T12:55:21;100882.09;;;7.25;93.35
84055;BME280;74141;51.504;7.122;2023-12-20T12:57:47;100901.22;;;7.30;92.29
84055;BME280;74141;51.504;7.122;2023-12-20T13:00:12;100903.72;;;7.34;93.06
84055;BME280;74141;51.504;7.122;2023-12-20T13:02:38;100892.28;;;7.38;92.88